Time;durP1;ratioP1;P1;durP2;ratioP2;P2;SDS_P1;SDS_P2;PMS_P1;PMS_P2;Temp;Humidity;BMP_temperature;BMP_pressure;BME280_temperature;BME280_humidity;BME280_pressure;Samples;Min_cycle;Max_cycle;Signal;HPM_P1;HPM_P2
2023/01/29 00:01:49;;;;;;;9.20;6.77;;;;;;;-0.65;96.51;101645.25;4993227;28;20173;-79
2023/01/29 00:04:14;;;;;;;10.10;9.10;;;;;;;-0.68;96.80;101640.31;4993385;28;20209;-80
2023/01/29 00:06:40;;;;;;;11.03;8.10;;;;;;;-0.70;97.32;101631.63;4992642;28;20640;-79
2023/01/29 00:09:05;;;;;;;9.33;8.17;;;;;;;-0.69;96.83;101634.09;4993806;28;20204;-78
2023/01/29 00:11:30;;;;;;;7.27;6.57;;;;;;;-0.67;96.86;101631.22;4993035;28;20587;-78
2023/01/29 00:13:56;;;;;;;10.80;8.50;;;;;;;-0.64;96.80;101620.06;4993408;28;20173;-79
2023/01/29 00:16:22;;;;;;;9.40;7.50;;;;;;;-0.62;96.33;101624.19;4993206;28;20204;-80
2023/01/29 00:18:47;;;;;;;8.33;7.53;;;;;;;-0.57;96.55;101625.44;4993480;28;20181;-77
2023/01/29 00:21:16;;;;;;;4.97;4.57;;;;;;;-0.55;96.43;101618.00;4992605;28;20624;-80
2023/01/29 00:23:42;;;;;;;5.17;4.73;;;;;;;-0.53;96.20;101619.44;4993088;28;20205;-80
2023/01/29 00:26:08;;;;;;;4.93;4.53;;;;;;;-0.47;96.08;101617.75;4993090;28;20428;-80
2023/01/29 00:28:34;;;;;;;6.73;6.17;;;;;;;-0.48;96.75;101622.31;4993059;28;20420;-80
2023/01/29 00:31:10;;;;;;;6.03;5.47;;;;;;;-0.47;96.59;101617.75;4992940;28;20482;-80
2023/01/29 00:33:36;;;;;;;6.80;6.07;;;;;;;-0.46;96.50;101620.22;4993021;28;20328;-79
2023/01/29 00:36:06;;;;;;;3.97;2.30;;;;;;;-0.42;96.74;101617.97;4993041;28;21030;-79
2023/01/29 00:38:32;;;;;;;11.23;7.93;;;;;;;-0.43;96.43;101616.31;4992860;28;20637;-78
2023/01/29 00:46:32;;;;;;;7.93;7.17;;;;;;;-0.47;96.35;101617.75;4992680;28;20416;-80
2023/01/29 00:48:57;;;;;;;13.53;9.70;;;;;;;-0.51;96.12;101613.84;4992573;28;20420;-80
2023/01/29 00:51:22;;;;;;;9.17;8.37;;;;;;;-0.54;96.07;101612.41;4991904;28;20512;-81
2023/01/29 00:53:48;;;;;;;4.73;4.33;;;;;;;-0.57;96.11;101612.03;4992462;28;20223;-79
2023/01/29 00:56:13;;;;;;;7.37;6.67;;;;;;;-0.62;96.54;101616.13;4992536;28;20598;-80
2023/01/29 00:58:38;;;;;;;8.70;7.43;;;;;;;-0.65;96.68;101613.88;4992462;28;20228;-80
2023/01/29 01:01:03;;;;;;;5.77;5.30;;;;;;;-0.64;97.22;101617.38;4991947;28;20636;-81
2023/01/29 01:03:29;;;;;;;8.57;7.67;;;;;;;-0.66;97.20;101617.59;4992099;28;20212;-82
2023/01/29 01:06:06;;;;;;;4.30;4.00;;;;;;;-0.64;97.55;101620.06;4992163;28;20177;-80
2023/01/29 01:11:16;;;;;;;3.80;3.50;;;;;;;-0.63;98.46;101627.06;4991918;28;20991;-80
2023/01/29 01:13:41;;;;;;;2.43;1.90;;;;;;;-0.63;98.26;101629.75;4991015;28;20733;-79
2023/01/29 01:16:17;;;;;;;4.60;4.20;;;;;;;-0.65;98.77;101632.66;4991995;28;20196;-79
2023/01/29 01:18:42;;;;;;;6.83;6.13;;;;;;;-0.70;98.86;101628.94;4991843;28;20526;-81
2023/01/29 01:21:08;;;;;;;3.77;3.57;;;;;;;-0.76;98.93;101624.41;4991556;28;20428;-79
2023/01/29 01:23:33;;;;;;;9.37;8.47;;;;;;;-0.85;98.71;101625.66;4991866;28;20212;-79
2023/01/29 01:25:59;;;;;;;8.90;7.83;;;;;;;-0.91;99.03;101619.25;4991865;28;20878;-79
2023/01/29 01:28:24;;;;;;;8.83;7.97;;;;;;;-0.95;99.55;101613.47;4992201;28;20177;-80
2023/01/29 01:30:50;;;;;;;9.37;7.53;;;;;;;-0.99;100.00;101598.00;4991486;28;20508;-80
2023/01/29 01:33:15;;;;;;;7.90;7.10;;;;;;;-0.98;99.83;101608.53;4991707;28;20200;-79
2023/01/29 01:35:40;;;;;;;8.97;8.00;;;;;;;-0.98;99.51;101605.03;4991675;28;20550;-80
2023/01/29 01:38:06;;;;;;;8.77;7.13;;;;;;;-0.98;99.81;101591.63;4991521;28;20216;-79
2023/01/29 01:40:31;;;;;;;9.40;7.53;;;;;;;-0.98;99.84;101588.94;4991299;28;20177;-77
2023/01/29 01:42:58;;;;;;;10.73;9.50;;;;;;;-0.96;99.26;101589.56;4991459;28;20263;-79
2023/01/29 01:45:31;;;;;;;8.70;8.03;;;;;;;-0.91;99.26;101584.38;4991562;28;20201;-80
2023/01/29 01:48:11;;;;;;;12.73;9.53;;;;;;;-0.90;99.29;101578.81;4991335;28;20409;-80
2023/01/29 01:50:49;;;;;;;15.27;8.90;;;;;;;-0.87;98.98;101576.72;4991108;28;20478;-76
2023/01/29 01:53:21;;;;;;;9.37;8.47;;;;;;;-0.89;99.29;101571.56;4991213;28;20412;-83
2023/01/29 01:55:51;;;;;;;9.87;8.40;;;;;;;-0.85;99.07;101572.84;4991377;28;20567;-81
2023/01/29 01:58:25;;;;;;;16.63;9.10;;;;;;;-0.86;98.26;101581.09;4991302;28;20412;-80
2023/01/29 02:00:50;;;;;;;10.20;7.67;;;;;;;-0.90;98.80;101570.75;4990932;28;20417;-82
2023/01/29 02:11:57;;;;;;;7.70;6.90;;;;;;;-1.00;98.79;101573.06;4991030;28;20420;-79
2023/01/29 02:14:24;;;;;;;7.30;6.70;;;;;;;-1.02;99.16;101576.94;4991117;28;20900;-79
2023/01/29 02:16:49;;;;;;;13.60;11.23;;;;;;;-1.07;98.81;101571.38;4991070;28;20184;-79
2023/01/29 02:19:31;;;;;;;14.23;10.97;;;;;;;-1.09;98.91;101586.88;4990904;28;20424;-80
2023/01/29 02:22:24;;;;;;;8.70;7.87;;;;;;;-1.08;99.32;101586.66;4990793;28;20264;-80
2023/01/29 02:24:57;;;;;;;10.27;9.27;;;;;;;-1.08;98.72;101593.88;4990883;28;20526;-79
2023/01/29 02:27:36;;;;;;;8.43;7.63;;;;;;;-1.09;99.60;101592.22;4990849;28;20900;-79
2023/01/29 02:30:08;;;;;;;8.10;6.53;;;;;;;-1.09;99.23;101592.22;4996864;28;20470;-78
2023/01/29 02:32:36;;;;;;;6.83;6.33;;;;;;;-1.11;99.04;101589.75;4996572;28;20924;-78
2023/01/29 02:35:30;;;;;;;14.97;13.17;;;;;;;-1.11;99.29;101602.34;4997473;28;20424;-79
2023/01/29 02:38:09;;;;;;;9.67;8.77;;;;;;;-1.11;99.01;101607.69;4995624;28;20431;-79
2023/01/29 02:40:43;;;;;;;9.80;8.90;;;;;;;-1.10;99.23;101609.34;4997249;28;20876;-80
2023/01/29 02:43:18;;;;;;;10.43;9.43;;;;;;;-1.08;99.10;101608.09;4997222;28;20469;-81
2023/01/29 02:45:52;;;;;;;10.43;8.73;;;;;;;-1.05;99.39;101614.91;4997129;28;20431;-79
2023/01/29 02:48:21;;;;;;;11.03;9.83;;;;;;;-1.00;99.06;101612.47;4997397;28;20411;-76
2023/01/29 02:51:04;;;;;;;10.10;9.13;;;;;;;-0.96;98.51;101605.63;4997022;28;20518;-78
2023/01/29 02:53:53;;;;;;;11.67;9.90;;;;;;;-0.94;98.75;101614.31;4997792;28;20420;-79
2023/01/29 02:56:29;;;;;;;9.30;8.40;;;;;;;-0.97;98.21;101626.28;4997482;28;20419;-79
2023/01/29 02:59:01;;;;;;;9.47;8.57;;;;;;;-0.97;98.36;101625.44;4997419;28;20423;-79
2023/01/29 03:01:36;;;;;;;7.57;5.03;;;;;;;-0.97;98.53;101620.09;4996946;28;20832;-79
2023/01/29 03:04:11;;;;;;;9.37;8.30;;;;;;;-0.99;98.75;101614.09;4997119;28;21025;-78
2023/01/29 03:06:43;;;;;;;10.50;9.43;;;;;;;-0.98;98.89;101629.16;4997348;28;20416;-76
2023/01/29 03:09:18;;;;;;;12.07;10.00;;;;;;;-1.01;99.37;101619.69;4997022;28;20458;-77
2023/01/29 03:11:50;;;;;;;11.83;10.57;;;;;;;-1.04;99.41;101625.44;4996921;28;20400;-79
2023/01/29 03:14:23;;;;;;;8.37;7.07;;;;;;;-1.03;99.63;101610.97;4997160;28;20412;-76
2023/01/29 03:16:52;;;;;;;12.07;10.93;;;;;;;-1.04;99.78;101609.34;4996866;28;20860;-77
2023/01/29 03:19:19;;;;;;;11.73;9.60;;;;;;;-1.04;100.00;101595.09;4997022;28;20416;-79
2023/01/29 03:21:58;;;;;;;9.50;8.37;;;;;;;-1.03;100.00;101594.91;4996542;28;20428;-78
2023/01/29 03:32:56;;;;;;;17.33;9.83;;;;;;;-0.98;100.00;101580.88;4996917;28;20478;-80
2023/01/29 03:35:35;;;;;;;18.27;9.40;;;;;;;-0.97;100.00;101586.03;4996762;28;20416;-79
2023/01/29 03:38:02;;;;;;;9.70;8.00;;;;;;;-0.98;100.00;101583.56;4996924;28;20420;-77
2023/01/29 03:40:35;;;;;;;11.70;10.70;;;;;;;-0.94;100.00;101588.31;4994062;28;20416;-79
2023/01/29 03:43:11;;;;;;;4.70;3.80;;;;;;;-0.90;100.00;101591.38;4994151;28;20463;-76
2023/01/29 03:45:58;;;;;;;8.60;7.70;;;;;;;-0.85;100.00;101593.47;4994059;28;20427;-78
2023/01/29 03:48:34;;;;;;;5.77;5.27;;;;;;;-0.84;100.00;101585.22;4993714;28;20990;-80
2023/01/29 03:51:19;;;;;;;11.07;7.80;;;;;;;-0.83;99.87;101589.53;4993240;28;20433;-79
2023/01/29 03:53:52;;;;;;;6.90;6.00;;;;;;;-0.82;100.00;101585.81;4993667;28;20946;-77
2023/01/29 03:56:37;;;;;;;10.53;8.73;;;;;;;-0.81;100.00;101575.91;4993276;28;20416;-80
2023/01/29 03:59:19;;;;;;;11.43;8.13;;;;;;;-0.82;99.99;101576.97;4993732;28;20424;-80
2023/01/29 04:01:50;;;;;;;8.30;7.47;;;;;;;-0.82;100.00;101566.22;4993133;28;20428;-81
2023/01/29 04:04:33;;;;;;;11.20;9.33;;;;;;;-0.80;99.63;101564.97;4993382;28;20530;-80
2023/01/29 04:07:16;;;;;;;8.53;7.53;;;;;;;-0.78;99.76;101570.13;4993337;28;20475;-78
2023/01/29 04:09:51;;;;;;;15.63;9.80;;;;;;;-0.77;99.18;101561.03;4992994;28;20435;-80
2023/01/29 04:12:23;;;;;;;15.80;6.97;;;;;;;-0.74;99.29;101563.31;4993286;28;20412;-80
2023/01/29 04:14:51;;;;;;;11.70;7.90;;;;;;;-0.77;99.13;101559.19;4993167;28;20496;-77
2023/01/29 04:17:24;;;;;;;10.53;9.53;;;;;;;-0.75;99.30;101548.25;4993090;28;20420;-80
2023/01/29 04:19:49;;;;;;;14.37;9.77;;;;;;;-0.75;99.17;101543.69;4993130;28;20417;-78
2023/01/29 04:22:23;;;;;;;8.50;7.60;;;;;;;-0.76;99.05;101533.19;4992601;28;20447;-80
2023/01/29 04:24:50;;;;;;;14.20;11.60;;;;;;;-0.75;98.62;101530.28;4992935;28;20270;-77
2023/01/29 04:27:30;;;;;;;8.57;7.70;;;;;;;-0.72;98.12;101527.22;4992904;28;20500;-77
2023/01/29 04:30:16;;;;;;;5.90;5.13;;;;;;;-0.68;98.40;101531.13;4992881;28;20495;-77
2023/01/29 04:32:59;;;;;;;9.07;7.90;;;;;;;-0.65;97.96;101525.31;4992771;28;20920;-76
2023/01/29 04:35:35;;;;;;;7.53;6.83;;;;;;;-0.62;98.37;101513.34;4992852;28;20417;-80
2023/01/29 04:38:34;;;;;;;9.67;7.73;;;;;;;-0.60;97.54;101511.25;4991631;28;20519;-81
2023/01/29 04:41:10;;;;;;;2.53;2.33;;;;;;;-0.58;97.62;101511.03;4992364;28;20421;-76
2023/01/29 04:44:02;;;;;;;9.47;8.10;;;;;;;-0.60;97.59;101505.88;4992548;28;20464;-79
2023/01/29 04:46:42;;;;;;;5.07;4.77;;;;;;;-0.63;97.19;101493.72;4992462;28;20438;-82
2023/01/29 04:49:24;;;;;;;7.37;6.67;;;;;;;-0.64;97.39;101481.34;4993004;28;20930;-81
2023/01/29 04:52:00;;;;;;;7.60;6.83;;;;;;;-0.66;97.16;101480.75;4990547;28;20517;-81
2023/01/29 04:55:11;;;;;;;5.17;4.67;;;;;;;-0.63;97.36;101474.94;4992651;28;20443;-80
2023/01/29 04:57:53;;;;;;;4.80;4.50;;;;;;;-0.62;97.44;101468.53;4991149;28;20924;-79
2023/01/29 05:00:26;;;;;;;6.97;6.37;;;;;;;-0.62;97.60;101473.09;4992043;28;20905;-81
2023/01/29 05:02:52;;;;;;;10.80;9.80;;;;;;;-0.63;97.24;101474.13;4992203;28;20902;-79
2023/01/29 05:05:19;;;;;;;9.33;8.40;;;;;;;-0.61;97.05;101480.09;4991752;28;20417;-79
2023/01/29 05:07:46;;;;;;;6.90;6.20;;;;;;;-0.60;96.93;101479.06;4992545;28;20425;-79
2023/01/29 05:10:14;;;;;;;10.53;8.80;;;;;;;-0.58;97.19;101481.53;4991793;28;20424;-78
2023/01/29 05:12:42;;;;;;;10.53;8.67;;;;;;;-0.57;97.25;101469.78;5007631;28;20438;-79
2023/01/29 05:15:13;;;;;;;4.13;3.73;;;;;;;-0.54;96.74;101488.13;5011853;28;20559;-79
2023/01/29 05:17:39;;;;;;;10.63;8.77;;;;;;;-0.53;97.19;101477.19;5011895;28;20428;-80
2023/01/29 05:20:05;;;;;;;2.43;2.33;;;;;;;-0.54;97.01;101472.84;5006881;28;20429;-79
2023/01/29 05:22:31;;;;;;;8.63;7.23;;;;;;;-0.54;96.64;101491.66;4991959;28;20196;-78
2023/01/29 05:24:56;;;;;;;13.90;12.50;;;;;;;-0.54;96.50;101490.81;4991858;28;21176;-80
2023/01/29 05:30:15;;;;;;;9.77;8.30;;;;;;;-0.54;96.53;101482.78;4991603;28;20172;-76
2023/01/29 05:32:40;;;;;;;9.50;8.50;;;;;;;-0.54;97.23;101491.66;4992113;28;20421;-78
2023/01/29 05:35:06;;;;;;;10.27;8.83;;;;;;;-0.53;97.19;101484.41;4991573;28;20538;-82
2023/01/29 05:37:31;;;;;;;8.90;8.03;;;;;;;-0.55;97.11;101481.13;4991809;28;20169;-80
2023/01/29 05:39:56;;;;;;;9.00;7.07;;;;;;;-0.55;96.99;101484.63;4991486;28;20179;-82
2023/01/29 05:42:22;;;;;;;12.20;10.67;;;;;;;-0.52;97.05;101480.69;4991517;28;20503;-81
2023/01/29 05:44:48;;;;;;;11.87;10.53;;;;;;;-0.53;96.69;101489.78;4991739;28;20242;-80
2023/01/29 05:47:18;;;;;;;13.53;12.23;;;;;;;-0.55;97.02;101492.69;4991434;28;20502;-80
2023/01/29 05:49:43;;;;;;;3.77;3.47;;;;;;;-0.56;96.78;101495.59;4991191;28;20185;-79
2023/01/29 05:52:08;;;;;;;13.73;10.13;;;;;;;-0.57;96.97;101500.13;4991256;28;20424;-80
2023/01/29 05:54:34;;;;;;;12.07;7.73;;;;;;;-0.57;96.99;101491.25;4991283;28;20259;-81
2023/01/29 05:56:59;;;;;;;9.70;8.67;;;;;;;-0.58;97.21;101500.31;4991364;28;20174;-81
2023/01/29 05:59:24;;;;;;;16.90;11.43;;;;;;;-0.59;97.01;101499.50;4991083;28;20180;-80
2023/01/29 06:01:50;;;;;;;12.97;10.47;;;;;;;-0.60;97.09;101490.63;4991199;28;20224;-79
2023/01/29 06:04:15;;;;;;;9.57;8.60;;;;;;;-0.60;97.46;101497.84;4990595;28;20707;-80
2023/01/29 06:06:40;;;;;;;17.10;12.20;;;;;;;-0.61;97.29;101502.38;4991159;28;20178;-82
2023/01/29 06:09:05;;;;;;;11.30;10.17;;;;;;;-0.57;96.73;101501.97;4991220;28;20170;-82
2023/01/29 06:11:31;;;;;;;11.80;6.97;;;;;;;-0.58;96.80;101516.41;4990792;28;20181;-77
2023/01/29 06:13:56;;;;;;;8.60;7.80;;;;;;;-0.58;96.97;101511.03;4991521;28;20264;-79
2023/01/29 06:16:22;;;;;;;11.33;10.30;;;;;;;-0.58;97.09;101516.41;4991017;28;20169;-82
2023/01/29 06:18:47;;;;;;;11.57;10.57;;;;;;;-0.58;97.20;101511.03;4991172;28;20203;-81
2023/01/29 06:21:13;;;;;;;17.20;13.67;;;;;;;-0.60;96.80;101519.31;4990865;28;20173;-82
2023/01/29 06:23:38;;;;;;;18.47;15.77;;;;;;;-0.61;96.57;101514.97;4990966;28;20193;-83
2023/01/29 06:26:07;;;;;;;14.97;10.90;;;;;;;-0.58;96.48;101517.22;4991423;28;20181;-81
2023/01/29 06:28:32;;;;;;;18.40;13.30;;;;;;;-0.60;96.87;101514.75;4990887;28;20220;-79
2023/01/29 06:31:00;;;;;;;12.27;10.50;;;;;;;-0.57;96.61;101501.97;4990533;28;20420;-81
2023/01/29 06:33:25;;;;;;;13.43;12.23;;;;;;;-0.58;96.72;101494.94;4990965;28;20173;-80
2023/01/29 06:36:03;;;;;;;6.43;5.87;;;;;;;-0.57;96.60;101492.06;4990735;28;20912;-81
2023/01/29 06:38:28;;;;;;;7.30;6.60;;;;;;;-0.58;96.46;101501.13;4990831;28;20620;-81
2023/01/29 06:40:54;;;;;;;12.03;10.70;;;;;;;-0.58;96.99;101498.44;4990580;28;20424;-76
2023/01/29 06:43:20;;;;;;;8.33;7.63;;;;;;;-0.55;96.77;101499.91;4991143;28;20713;-80
2023/01/29 06:45:55;;;;;;;12.70;10.60;;;;;;;-0.55;96.80;101503.41;4990932;28;20609;-83
2023/01/29 06:48:21;;;;;;;19.57;14.77;;;;;;;-0.55;96.60;101503.41;4990744;28;20412;-79
2023/01/29 06:50:48;;;;;;;21.57;8.67;;;;;;;-0.55;96.03;101500.72;4990306;28;20797;-82
2023/01/29 06:53:13;;;;;;;13.07;8.70;;;;;;;-0.54;96.52;101501.56;4990782;28;20177;-79
2023/01/29 06:55:39;;;;;;;11.93;7.60;;;;;;;-0.54;96.08;101507.75;4990381;28;20416;-82
2023/01/29 06:58:06;;;;;;;12.67;10.90;;;;;;;-0.53;96.39;101511.25;4989327;28;20247;-81
2023/01/29 07:00:32;;;;;;;12.73;8.37;;;;;;;-0.52;96.73;101499.47;4990213;28;20189;-83
2023/01/29 07:02:57;;;;;;;12.77;11.57;;;;;;;-0.53;95.99;101498.66;4990691;28;20468;-81
2023/01/29 07:05:22;;;;;;;19.30;12.90;;;;;;;-0.55;96.05;101498.06;4989401;28;20189;-84
2023/01/29 07:07:47;;;;;;;17.03;13.07;;;;;;;-0.55;96.46;101516.00;4990541;28;20178;-81
2023/01/29 07:10:13;;;;;;;17.20;10.73;;;;;;;-0.55;95.92;101530.25;4990225;28;20280;-81
2023/01/29 07:12:38;;;;;;;16.10;11.93;;;;;;;-0.56;96.33;101530.47;4990452;28;20189;-81
2023/01/29 07:15:04;;;;;;;9.73;4.80;;;;;;;-0.57;95.91;101524.28;4991773;28;20247;-79
2023/01/29 07:17:29;;;;;;;14.07;11.63;;;;;;;-0.56;96.33;101542.03;4994112;28;20173;-78
2023/01/29 07:19:54;;;;;;;16.20;12.53;;;;;;;-0.56;95.89;101536.66;4994377;28;20200;-84
2023/01/29 07:22:20;;;;;;;21.33;11.93;;;;;;;-0.54;96.35;101541.81;4992658;28;20201;-87
2023/01/29 07:24:47;;;;;;;7.70;7.00;;;;;;;-0.54;96.23;101537.28;4994021;28;20553;-82
2023/01/29 07:27:12;;;;;;;8.33;7.60;;;;;;;-0.53;96.27;101538.09;4994072;28;20177;-81
2023/01/29 07:29:37;;;;;;;13.37;11.60;;;;;;;-0.52;96.78;101534.38;4994213;28;20922;-81
2023/01/29 07:32:03;;;;;;;18.30;13.23;;;;;;;-0.56;96.29;101539.34;4993728;28;20177;-83
2023/01/29 07:34:28;;;;;;;18.10;14.33;;;;;;;-0.60;97.00;101530.03;4993982;28;20176;-82
2023/01/29 07:36:55;;;;;;;20.63;12.37;;;;;;;-0.63;97.24;101528.59;4993845;28;20708;-84
2023/01/29 07:39:21;;;;;;;16.03;13.00;;;;;;;-0.65;97.25;101524.50;4992613;28;20551;-85
2023/01/29 07:41:46;;;;;;;24.37;14.87;;;;;;;-0.66;97.56;101523.66;4993504;28;20424;-84
2023/01/29 07:44:11;;;;;;;25.33;16.93;;;;;;;-0.69;97.96;101518.72;4993717;28;20291;-84
2023/01/29 07:46:37;;;;;;;17.57;14.67;;;;;;;-0.67;98.03;101513.16;4994137;28;20173;-83
2023/01/29 07:49:02;;;;;;;29.20;16.10;;;;;;;-0.69;98.19;101497.28;4992574;28;20244;-85
2023/01/29 07:51:27;;;;;;;16.60;12.27;;;;;;;-0.66;98.20;101499.53;4993905;28;20177;-86
2023/01/29 07:53:53;;;;;;;17.13;12.53;;;;;;;-0.63;97.93;101500.94;4993915;28;20181;-85
2023/01/29 07:56:18;;;;;;;13.97;11.50;;;;;;;-0.61;97.94;101498.88;4992589;28;20223;-84
2023/01/29 07:58:43;;;;;;;28.57;18.90;;;;;;;-0.64;98.42;101502.81;4994060;28;20205;-83
2023/01/29 08:01:09;;;;;;;26.93;19.00;;;;;;;-0.67;98.18;101497.88;4993476;28;20174;-84
2023/01/29 08:03:34;;;;;;;39.23;18.37;;;;;;;-0.63;98.52;101487.53;4993611;28;20208;-84
2023/01/29 08:06:01;;;;;;;33.17;16.13;;;;;;;-0.60;98.28;101481.75;4992275;28;20688;-83
2023/01/29 08:08:26;;;;;;;11.97;10.13;;;;;;;-0.58;98.44;101466.25;4993487;28;20180;-82
2023/01/29 08:10:51;;;;;;;14.43;11.63;;;;;;;-0.55;98.45;101456.97;4993152;28;20640;-83
2023/01/29 08:13:17;;;;;;;24.73;17.77;;;;;;;-0.50;98.63;101451.78;4993423;28;20170;-83
2023/01/29 08:15:46;;;;;;;14.40;10.10;;;;;;;-0.47;99.19;101446.78;4991956;28;20180;-84
2023/01/29 08:18:12;;;;;;;12.57;10.20;;;;;;;-0.40;99.15;101454.84;4993395;28;20236;-83
2023/01/29 08:20:38;;;;;;;18.03;11.10;;;;;;;-0.38;99.31;101456.25;4992836;28;20424;-83
2023/01/29 08:23:06;;;;;;;26.77;15.07;;;;;;;-0.38;99.23;101452.75;4993047;28;20459;-82
2023/01/29 08:25:33;;;;;;;21.70;13.63;;;;;;;-0.36;98.79;101461.41;4993072;28;20461;-86
2023/01/29 08:27:59;;;;;;;14.50;11.73;;;;;;;-0.32;99.36;101468.81;4991101;28;20625;-82
2023/01/29 08:30:27;;;;;;;17.43;12.13;;;;;;;-0.32;99.33;101452.72;4992587;28;20896;-81
2023/01/29 08:32:52;;;;;;;17.43;13.93;;;;;;;-0.31;99.46;101454.34;4992944;28;20516;-82
2023/01/29 08:35:18;;;;;;;10.53;9.57;;;;;;;-0.28;99.47;101455.81;4992870;28;20431;-80
2023/01/29 08:37:43;;;;;;;24.10;12.80;;;;;;;-0.27;99.42;101462.00;4992662;28;20260;-81
2023/01/29 08:40:11;;;;;;;25.27;19.37;;;;;;;-0.25;99.64;101463.44;4991073;28;20192;-79
2023/01/29 08:42:36;;;;;;;9.07;8.27;;;;;;;-0.24;99.96;101454.34;4991527;28;20189;-76
2023/01/29 08:45:01;;;;;;;21.23;16.93;;;;;;;-0.24;99.45;101454.34;4991202;28;20804;-78
2023/01/29 08:47:27;;;;;;;12.33;11.07;;;;;;;-0.24;99.82;101459.72;4992622;28;20201;-81
2023/01/29 08:49:52;;;;;;;15.10;9.70;;;;;;;-0.24;99.68;101458.88;4992651;28;20177;-81
2023/01/29 08:52:17;;;;;;;15.67;13.23;;;;;;;-0.24;99.93;101454.34;4992304;28;20256;-80
2023/01/29 08:54:43;;;;;;;24.37;17.17;;;;;;;-0.25;99.81;101460.75;4992610;28;20193;-78
2023/01/29 08:57:08;;;;;;;13.90;10.97;;;;;;;-0.25;100.00;101458.06;4992654;28;20177;-81
2023/01/29 08:59:33;;;;;;;11.60;10.33;;;;;;;-0.23;99.95;101460.53;4992665;28;20188;-79
2023/01/29 09:01:58;;;;;;;2.43;2.33;;;;;;;-0.18;100.00;101453.47;4992358;28;20596;-72
2023/01/29 09:04:24;;;;;;;10.00;9.13;;;;;;;-0.18;100.00;101450.78;4992366;28;20499;-72
2023/01/29 09:06:49;;;;;;;14.80;10.40;;;;;;;-0.16;100.00;101467.50;4992252;28;20240;-77
2023/01/29 09:09:14;;;;;;;36.20;16.47;;;;;;;-0.15;100.00;101471.81;4992374;28;20227;-70
2023/01/29 09:11:40;;;;;;;16.87;8.60;;;;;;;-0.14;100.00;101459.25;4992064;28;20216;-72
2023/01/29 09:14:05;;;;;;;31.87;14.57;;;;;;;-0.17;100.00;101460.47;4992259;28;20533;-70
2023/01/29 09:16:31;;;;;;;18.97;12.57;;;;;;;-0.21;100.00;101442.34;4990839;28;20173;-70
2023/01/29 09:18:56;;;;;;;4.60;4.33;;;;;;;-0.25;100.00;101444.63;4992170;28;20641;-71
2023/01/29 09:21:21;;;;;;;48.27;21.50;;;;;;;-0.24;100.00;101450.84;4991728;28;20191;-70
2023/01/29 09:23:46;;;;;;;8.93;7.87;;;;;;;-0.24;100.00;101438.22;4991905;28;20197;-73
2023/01/29 09:26:12;;;;;;;14.37;12.77;;;;;;;-0.20;100.00;101438.59;4992082;28;20184;-70
2023/01/29 09:28:37;;;;;;;10.10;7.13;;;;;;;-0.18;100.00;101431.97;4991906;28;20172;-70
2023/01/29 09:31:03;;;;;;;20.60;8.43;;;;;;;-0.17;100.00;101422.88;4990582;28;20236;-72
2023/01/29 09:33:29;;;;;;;27.50;14.53;;;;;;;-0.21;100.00;101426.22;4991983;28;20176;-73
2023/01/29 09:35:54;;;;;;;16.00;14.37;;;;;;;-0.20;100.00;101409.91;4992301;28;20529;-71
2023/01/29 09:38:20;;;;;;;20.87;14.57;;;;;;;-0.17;100.00;101404.09;4990967;28;20730;-70
2023/01/29 09:41:14;;;;;;;17.97;13.70;;;;;;;-0.16;100.00;101404.91;4991827;28;20169;-69
2023/01/29 09:43:44;;;;;;;12.00;10.60;;;;;;;-0.13;100.00;101396.44;4991552;28;20201;-72
2023/01/29 09:46:26;;;;;;;4.43;3.80;;;;;;;-0.10;100.00;101399.50;4991953;28;20728;-70
2023/01/29 09:49:05;;;;;;;16.27;11.57;;;;;;;-0.07;100.00;101393.69;4991593;28;20416;-70
2023/01/29 09:51:37;;;;;;;9.70;8.77;;;;;;;-0.03;100.00;101388.69;4991262;28;20452;-70
2023/01/29 09:54:15;;;;;;;20.10;15.13;;;;;;;0.02;100.00;101382.69;4990505;28;20771;-70
2023/01/29 09:56:42;;;;;;;22.80;14.07;;;;;;;0.06;100.00;101386.59;4990411;28;20770;-71
2023/01/29 09:59:11;;;;;;;23.33;14.60;;;;;;;0.04;100.00;101378.75;4991463;28;20421;-70
2023/01/29 10:01:40;;;;;;;12.57;10.83;;;;;;;0.08;100.00;101384.50;4990125;28;20914;-71
2023/01/29 10:04:15;;;;;;;22.67;15.27;;;;;;;0.09;100.00;101383.47;4991624;28;21106;-76
2023/01/29 10:06:53;;;;;;;14.93;11.70;;;;;;;0.13;100.00;101384.66;4991558;28;20438;-70
2023/01/29 10:09:39;;;;;;;27.77;17.10;;;;;;;0.15;100.00;101377.22;4991451;28;20502;-72
2023/01/29 10:12:19;;;;;;;18.00;13.73;;;;;;;0.18;100.00;101368.72;4991433;28;20515;-69
2023/01/29 10:15:25;;;;;;;25.80;15.50;;;;;;;0.22;100.00;101373.41;4992666;28;20559;-70
2023/01/29 10:18:05;;;;;;;36.90;22.33;;;;;;;0.21;100.00;101365.59;4990889;28;20436;-71
2023/01/29 10:20:54;;;;;;;16.90;14.80;;;;;;;0.29;100.00;101378.75;4991389;28;20423;-71
2023/01/29 10:23:47;;;;;;;35.23;18.87;;;;;;;0.31;100.00;101375.84;4991397;28;20522;-70
2023/01/29 10:26:12;;;;;;;22.93;14.50;;;;;;;0.30;100.00;101366.97;4989691;28;20757;-73
2023/01/29 10:28:45;;;;;;;26.50;18.70;;;;;;;0.32;100.00;101364.88;4991511;28;20443;-70
2023/01/29 10:31:19;;;;;;;17.77;9.80;;;;;;;0.38;100.00;101377.41;4991189;28;20181;-71
2023/01/29 10:33:52;;;;;;;34.87;21.07;;;;;;;0.38;100.00;101366.66;4991049;28;20420;-71
2023/01/29 10:36:48;;;;;;;11.97;7.57;;;;;;;0.46;100.00;101379.84;4991002;28;20423;-70
2023/01/29 10:39:19;;;;;;;17.17;11.83;;;;;;;0.44;100.00;101386.47;4982415;28;20528;-75
2023/01/29 10:42:25;;;;;;;24.13;14.33;;;;;;;0.48;100.00;101382.28;4990679;28;20416;-75
2023/01/29 10:45:22;;;;;;;14.47;12.97;;;;;;;0.49;100.00;101382.06;4988140;28;20480;-71
2023/01/29 10:47:51;;;;;;;26.33;16.93;;;;;;;0.50;99.61;101390.94;4989864;28;20762;-76
2023/01/29 10:50:42;;;;;;;19.53;14.53;;;;;;;0.49;99.89;101384.75;4992422;28;21107;-76
2023/01/29 10:53:53;;;;;;;22.37;14.60;;;;;;;0.47;99.58;101376.09;4994796;28;20753;-73
2023/01/29 10:56:36;;;;;;;19.77;14.67;;;;;;;0.45;99.37;101367.44;4995093;28;20413;-74
2023/01/29 10:59:20;;;;;;;23.93;16.87;;;;;;;0.49;99.16;101370.50;4993530;28;20932;-71
2023/01/29 11:01:45;;;;;;;23.53;16.13;;;;;;;0.48;98.91;101358.91;4994520;28;20413;-72
2023/01/29 11:04:12;;;;;;;24.57;15.60;;;;;;;0.53;99.30;101356.38;4994559;28;20223;-75
2023/01/29 11:06:38;;;;;;;24.73;16.63;;;;;;;0.54;98.67;101347.25;4994541;28;20182;-75
2023/01/29 11:09:22;;;;;;;20.13;16.50;;;;;;;0.58;98.64;101339.59;4994551;28;20474;-75
2023/01/29 11:11:56;;;;;;;15.23;12.87;;;;;;;0.62;97.96;101337.28;4994159;28;20655;-75
2023/01/29 11:14:32;;;;;;;22.43;16.83;;;;;;;0.65;97.90;101331.44;4994461;28;20418;-73
2023/01/29 11:16:58;;;;;;;17.83;14.63;;;;;;;0.63;97.19;101315.53;4994726;28;20423;-75
2023/01/29 11:19:39;;;;;;;19.57;14.67;;;;;;;0.63;96.83;101317.41;4992988;28;20435;-74
2023/01/29 11:22:04;;;;;;;21.73;15.60;;;;;;;0.66;96.62;101311.56;4992688;28;20189;-72
2023/01/29 11:24:29;;;;;;;23.50;14.63;;;;;;;0.69;96.56;101308.44;4994140;28;20829;-71
2023/01/29 11:26:58;;;;;;;11.00;9.97;;;;;;;0.73;96.66;101304.28;4994330;28;20271;-70
2023/01/29 11:29:37;;;;;;;28.87;17.77;;;;;;;0.72;96.59;101292.66;4994136;28;20205;-77
2023/01/29 11:32:06;;;;;;;14.83;13.37;;;;;;;0.73;96.05;101297.03;4993834;28;20181;-73
2023/01/29 11:34:32;;;;;;;15.87;10.93;;;;;;;0.73;96.05;101290.81;4994087;28;20435;-77
2023/01/29 11:37:00;;;;;;;15.53;13.97;;;;;;;0.76;95.79;101295.75;4993750;28;20420;-70
2023/01/29 11:39:27;;;;;;;8.93;6.87;;;;;;;0.79;95.63;101289.91;4994182;28;20207;-72
2023/01/29 11:41:57;;;;;;;19.87;9.57;;;;;;;0.81;95.28;101279.75;4993770;28;20710;-74
2023/01/29 11:44:35;;;;;;;14.20;12.60;;;;;;;0.78;94.97;101285.59;4993800;28;20475;-73
2023/01/29 11:47:13;;;;;;;16.40;12.70;;;;;;;0.78;94.98;101283.72;4994236;28;20424;-80
2023/01/29 11:49:43;;;;;;;26.40;16.87;;;;;;;0.75;94.81;101294.09;4993205;28;20424;-82
2023/01/29 11:52:10;;;;;;;12.27;9.93;;;;;;;0.81;95.08;101290.50;4993332;28;20177;-85
2023/01/29 11:54:50;;;;;;;23.77;17.47;;;;;;;0.80;95.23;101287.00;4993786;28;20511;-79
2023/01/29 11:57:33;;;;;;;28.73;16.40;;;;;;;0.80;95.38;101278.09;4993558;28;20417;-81
2023/01/29 12:00:05;;;;;;;11.03;8.70;;;;;;;0.82;95.35;101267.94;4993439;28;20425;-82
2023/01/29 12:02:40;;;;;;;25.67;15.40;;;;;;;0.83;94.81;101264.19;4992539;28;20428;-80